createdAt,value
2019-05-15T00:02:01.223Z,25.30
2019-05-15T00:04:28.804Z,25.20
2019-05-15T00:06:58.276Z,25.70
2019-05-15T00:09:25.728Z,25.70
2019-05-15T00:11:53.319Z,25.10
2019-05-15T00:14:20.911Z,25.20
2019-05-15T00:16:48.479Z,25.20
2019-05-15T00:19:16.152Z,25.10
2019-05-15T00:21:43.724Z,25.60
2019-05-15T00:24:13.059Z,25.50
2019-05-15T00:26:40.639Z,25.20
2019-05-15T00:29:15.605Z,25.40
2019-05-15T00:31:38.786Z,25.10
2019-05-15T00:34:12.524Z,25.70
2019-05-15T00:36:38.094Z,25.60
2019-05-15T00:39:05.526Z,25.30
2019-05-15T00:41:33.074Z,25.20
2019-05-15T00:44:00.784Z,25.50
2019-05-15T00:46:29.030Z,25.10
2019-05-15T00:48:59.021Z,25.20
2019-05-15T00:51:28.283Z,25.00
2019-05-15T00:53:55.464Z,25.00
2019-05-15T00:56:23.036Z,25.10
2019-05-15T00:58:50.637Z,25.00
2019-05-15T01:01:19.264Z,25.10
2019-05-15T01:03:48.926Z,25.10
2019-05-15T01:06:18.872Z,25.00
2019-05-15T01:08:45.657Z,25.00
2019-05-15T01:11:13.253Z,25.00
2019-05-15T01:13:40.812Z,25.00
2019-05-15T01:16:09.194Z,25.10
2019-05-15T01:18:38.530Z,25.10
2019-05-15T01:21:08.427Z,25.00
2019-05-15T01:23:35.669Z,25.00
2019-05-15T01:26:03.291Z,25.00
2019-05-15T01:28:30.850Z,25.00
2019-05-15T01:30:59.168Z,25.00
2019-05-15T01:33:28.289Z,25.00
2019-05-15T01:35:56.152Z,25.00
2019-05-15T01:38:23.770Z,25.00
2019-05-15T01:40:51.312Z,25.00
2019-05-15T01:43:18.995Z,25.10
2019-05-15T01:45:48.331Z,24.90
2019-05-15T01:48:18.735Z,25.00
2019-05-15T01:50:45.457Z,25.00
2019-05-15T01:53:13.051Z,24.30
2019-05-15T01:55:40.603Z,25.10
2019-05-15T01:58:09.049Z,24.70
2019-05-15T02:00:39.210Z,25.00
2019-05-15T02:03:06.500Z,25.00
2019-05-15T02:05:34.195Z,25.00
2019-05-15T02:08:01.736Z,25.00
2019-05-15T02:10:29.359Z,25.60
2019-05-15T02:12:58.780Z,25.00
2019-05-15T02:15:28.380Z,25.00
2019-05-15T02:17:55.650Z,25.00
2019-05-15T02:20:23.250Z,25.00
2019-05-15T02:22:50.829Z,25.00
2019-05-15T02:25:18.577Z,25.00
2019-05-15T02:27:48.011Z,25.00
2019-05-15T02:30:26.741Z,25.00
2019-05-15T02:32:45.040Z,25.00
2019-05-15T02:35:12.630Z,25.00
2019-05-15T02:37:41.429Z,25.00
2019-05-15T02:40:10.158Z,25.00
2019-05-15T02:42:39.892Z,25.10
2019-05-15T02:45:09.838Z,25.00
2019-05-15T02:47:39.104Z,25.00
2019-05-15T02:50:05.907Z,25.00
2019-05-15T02:52:33.473Z,25.00
2019-05-15T02:55:01.053Z,25.00
2019-05-15T02:57:30.058Z,25.00
2019-05-15T02:59:59.410Z,25.00
2019-05-15T03:02:28.647Z,25.00
2019-05-15T03:04:59.293Z,25.00
2019-05-15T03:07:25.788Z,25.00
2019-05-15T03:09:53.430Z,25.00
2019-05-15T03:12:21.093Z,25.00
2019-05-15T03:14:49.168Z,25.00
2019-05-15T03:17:19.076Z,24.90
2019-05-15T03:19:49.493Z,24.90
2019-05-15T03:22:19.495Z,25.00
2019-05-15T03:24:49.966Z,24.90
2019-05-15T03:27:15.821Z,24.90
2019-05-15T03:29:43.399Z,24.20
2019-05-15T03:32:25.297Z,23.50
2019-05-15T03:34:46.924Z,24.90
2019-05-15T03:37:12.182Z,24.30
2019-05-15T03:39:39.399Z,24.90
2019-05-15T03:42:09.553Z,24.90
2019-05-15T03:44:39.046Z,24.90
2019-05-15T03:47:09.028Z,23.90
2019-05-15T03:49:35.074Z,24.90
2019-05-15T03:52:02.671Z,24.90
2019-05-15T03:54:30.235Z,24.40
2019-05-15T03:56:58.543Z,23.70
2019-05-15T03:59:29.324Z,24.90
2019-05-15T04:01:55.692Z,24.50
2019-05-15T04:04:23.335Z,23.50
2019-05-15T04:06:50.898Z,24.30
2019-05-15T04:09:19.050Z,23.60
2019-05-15T04:11:49.685Z,24.80
2019-05-15T04:14:19.163Z,24.50
2019-05-15T04:16:45.443Z,24.20
2019-05-15T04:19:13.081Z,23.90
2019-05-15T04:21:44.664Z,23.80
2019-05-15T04:24:10.077Z,24.30
2019-05-15T04:26:39.370Z,23.60
2019-05-15T04:29:09.706Z,23.50
2019-05-15T04:31:54.565Z,23.50
2019-05-15T04:34:08.949Z,23.80
2019-05-15T04:36:34.933Z,23.30
2019-05-15T04:39:02.544Z,23.80
2019-05-15T04:41:30.175Z,23.10
2019-05-15T04:43:59.742Z,23.40
2019-05-15T04:46:29.895Z,23.30
2019-05-15T04:48:59.584Z,23.00
2019-05-15T04:51:30.190Z,23.00
2019-05-15T04:53:58.481Z,23.30
2019-05-15T04:56:25.286Z,23.40
2019-05-15T04:58:52.850Z,23.40
2019-05-15T05:01:20.512Z,23.40
2019-05-15T05:03:49.632Z,23.50
2019-05-15T05:06:18.999Z,23.70
2019-05-15T05:08:49.043Z,23.90
2019-05-15T05:11:18.816Z,24.10
2019-05-15T05:13:48.360Z,24.80
2019-05-15T05:16:14.942Z,24.10
2019-05-15T05:18:42.499Z,23.40
2019-05-15T05:21:10.082Z,23.40
2019-05-15T05:23:37.873Z,22.90
2019-05-15T05:26:08.209Z,23.60
2019-05-15T05:28:34.895Z,23.60
2019-05-15T05:31:02.450Z,23.50
2019-05-15T05:33:30.052Z,23.70
2019-05-15T05:35:58.346Z,23.70
2019-05-15T05:38:28.155Z,23.60
2019-05-15T05:40:55.499Z,23.00
2019-05-15T05:43:23.055Z,22.80
2019-05-15T05:45:50.658Z,23.00
2019-05-15T05:48:19.106Z,23.00
2019-05-15T05:50:49.188Z,23.00
2019-05-15T05:53:16.164Z,23.00
2019-05-15T05:55:43.757Z,22.90
2019-05-15T05:58:11.331Z,23.20
2019-05-15T06:00:39.694Z,23.40
2019-05-15T06:03:08.646Z,23.60
2019-05-15T06:05:38.733Z,23.00
2019-05-15T06:08:07.989Z,23.10
2019-05-15T06:10:38.372Z,24.80
2019-05-15T06:13:05.146Z,24.80
2019-05-15T06:15:32.748Z,23.80
2019-05-15T06:18:00.328Z,23.80
2019-05-15T06:20:28.312Z,24.40
2019-05-15T06:22:57.995Z,24.80
2019-05-15T06:25:25.436Z,23.30
2019-05-15T06:27:53.082Z,24.80
2019-05-15T06:30:26.661Z,22.90
2019-05-15T06:33:04.996Z,22.20
2019-05-15T06:35:31.381Z,22.40
2019-05-15T06:37:59.291Z,21.90
2019-05-15T06:40:28.937Z,22.70
2019-05-15T06:42:59.132Z,23.00
2019-05-15T06:45:25.785Z,24.80
2019-05-15T06:47:53.411Z,23.10
2019-05-15T06:50:31.126Z,22.40
2019-05-15T06:52:58.796Z,21.90
2019-05-15T06:55:28.798Z,22.60
2019-05-15T06:57:58.285Z,21.90
2019-05-15T07:00:25.133Z,22.20
2019-05-15T07:02:52.773Z,21.70
2019-05-15T07:05:20.418Z,21.10
2019-05-15T07:07:48.831Z,21.60
2019-05-15T07:10:18.878Z,22.20
2019-05-15T07:12:48.564Z,20.40
2019-05-15T07:15:15.202Z,20.10
2019-05-15T07:17:42.752Z,20.10
2019-05-15T07:20:10.355Z,20.90
2019-05-15T07:22:39.226Z,20.60
2019-05-15T07:25:08.901Z,20.00
2019-05-15T07:27:38.728Z,20.10
2019-05-15T07:30:07.757Z,20.10
2019-05-15T07:32:35.461Z,20.00
2019-05-15T07:35:04.201Z,20.00
2019-05-15T07:37:31.804Z,20.00
2019-05-15T07:39:59.380Z,19.90
2019-05-15T07:42:29.108Z,19.90
2019-05-15T07:44:58.714Z,20.00
2019-05-15T07:47:25.594Z,20.00
2019-05-15T07:49:53.201Z,20.00
2019-05-15T07:52:20.796Z,20.90
2019-05-15T07:54:48.898Z,20.00
2019-05-15T07:57:19.100Z,22.00
2019-05-15T07:59:47.926Z,20.70
2019-05-15T08:02:15.117Z,20.40
2019-05-15T08:04:42.769Z,20.80
2019-05-15T08:07:10.367Z,20.60
2019-05-15T08:09:39.066Z,20.50
2019-05-15T08:12:08.280Z,20.00
2019-05-15T08:14:38.663Z,20.90
2019-05-15T08:17:05.356Z,21.00
2019-05-15T08:19:32.967Z,20.10
2019-05-15T08:22:00.522Z,20.30
2019-05-15T08:24:29.863Z,19.90
2019-05-15T08:26:58.132Z,20.10
2019-05-15T08:29:25.889Z,20.00
2019-05-15T08:31:53.515Z,20.00
2019-05-15T08:34:21.119Z,21.00
2019-05-15T08:36:48.733Z,22.10
2019-05-15T08:39:16.306Z,20.70
2019-05-15T08:41:43.898Z,20.60
2019-05-15T08:44:11.507Z,20.80
2019-05-15T08:46:39.130Z,21.10
2019-05-15T08:49:08.988Z,20.00
2019-05-15T08:51:38.094Z,20.00
2019-05-15T08:54:05.429Z,20.00
2019-05-15T08:56:33.054Z,20.10
2019-05-15T08:59:00.734Z,20.00
2019-05-15T09:01:28.888Z,20.00
2019-05-15T09:03:58.169Z,20.00
2019-05-15T09:06:28.442Z,20.00
2019-05-15T09:08:55.326Z,20.10
2019-05-15T09:11:22.898Z,20.10
2019-05-15T09:13:53.591Z,20.00
2019-05-15T09:16:19.831Z,20.00
2019-05-15T09:18:48.533Z,20.00
2019-05-15T09:21:18.969Z,20.00
2019-05-15T09:23:45.633Z,20.00
2019-05-15T09:26:13.224Z,20.80
2019-05-15T09:28:40.801Z,20.50
2019-05-15T09:31:08.632Z,20.90
2019-05-15T09:33:38.568Z,21.00
2019-05-15T09:36:05.702Z,21.10
2019-05-15T09:38:33.326Z,21.00
2019-05-15T09:41:00.883Z,21.10
2019-05-15T09:43:28.670Z,20.90
2019-05-15T09:45:58.327Z,21.30
2019-05-15T09:48:28.425Z,21.10
2019-05-15T09:50:55.128Z,21.50
2019-05-15T09:53:22.690Z,21.40
2019-05-15T09:55:50.287Z,21.60
2019-05-15T09:58:20.371Z,21.40
2019-05-15T10:00:51.833Z,21.60
2019-05-15T10:03:18.973Z,21.30
2019-05-15T10:05:48.321Z,21.30
2019-05-15T10:08:15.784Z,21.30
2019-05-15T10:10:43.396Z,21.20
2019-05-15T10:13:10.946Z,21.10
2019-05-15T10:15:39.107Z,21.20
2019-05-15T10:18:09.770Z,21.40
2019-05-15T10:20:36.152Z,21.80
2019-05-15T10:23:03.756Z,21.20
2019-05-15T10:25:31.345Z,21.10
2019-05-15T10:27:58.907Z,21.00
2019-05-15T10:30:28.384Z,20.60
2019-05-15T10:32:55.800Z,20.10
2019-05-15T10:35:27.789Z,20.20
2019-05-15T10:37:53.917Z,20.10
2019-05-15T10:40:21.468Z,20.20
2019-05-15T10:42:49.658Z,20.20
2019-05-15T10:45:19.219Z,20.10
2019-05-15T10:47:49.385Z,20.40
2019-05-15T10:50:18.866Z,20.10
2019-05-15T10:52:45.452Z,20.90
2019-05-15T10:55:13.138Z,20.60
2019-05-15T10:57:44.158Z,20.60
2019-05-15T11:00:10.038Z,20.50
2019-05-15T11:02:39.327Z,20.60
2019-05-15T11:05:09.432Z,20.20
2019-05-15T11:07:39.342Z,20.20
2019-05-15T11:10:08.458Z,20.50
2019-05-15T11:12:35.480Z,20.20
2019-05-15T11:15:04.092Z,20.10
2019-05-15T11:17:31.869Z,20.70
2019-05-15T11:19:59.534Z,21.00
2019-05-15T11:22:29.666Z,21.00
2019-05-15T11:24:59.295Z,21.00
2019-05-15T11:27:27.954Z,21.20
2019-05-15T11:29:55.125Z,20.90
2019-05-15T11:32:22.670Z,20.50
2019-05-15T11:34:50.274Z,20.70
2019-05-15T11:37:18.967Z,21.40
2019-05-15T11:39:47.370Z,21.40
2019-05-15T11:42:15.251Z,20.10
2019-05-15T11:44:42.845Z,20.10
2019-05-15T11:47:10.441Z,20.10
2019-05-15T11:49:38.368Z,20.10
2019-05-15T11:52:08.610Z,20.10
2019-05-15T11:54:35.372Z,20.00
2019-05-15T11:57:02.968Z,19.20
2019-05-15T11:59:30.656Z,19.10
2019-05-15T12:01:58.264Z,19.20
2019-05-15T12:04:33.096Z,18.90
2019-05-15T12:06:59.674Z,18.80
2019-05-15T12:09:24.449Z,19.00
2019-05-15T12:11:52.035Z,18.20
2019-05-15T12:14:19.753Z,18.50
2019-05-15T12:17:02.351Z,18.90
2019-05-15T12:19:17.534Z,18.60
2019-05-15T12:21:45.233Z,17.50
2019-05-15T12:24:12.872Z,18.20
2019-05-15T12:26:40.527Z,17.90
2019-05-15T12:29:09.807Z,17.80
2019-05-15T12:31:38.790Z,17.10
2019-05-15T12:34:08.919Z,17.40
2019-05-15T12:36:51.414Z,17.50
2019-05-15T12:39:12.604Z,18.10
2019-05-15T13:01:30.091Z,18.20
2019-05-15T13:03:58.025Z,18.70
2019-05-15T13:06:28.337Z,18.50
2019-05-15T13:08:55.080Z,16.70
2019-05-15T13:11:22.691Z,15.10
2019-05-15T13:13:50.281Z,14.80
2019-05-15T13:16:18.826Z,14.90
2019-05-15T13:18:48.105Z,14.00
2019-05-15T13:21:20.587Z,14.50
2019-05-15T13:23:45.274Z,14.30
2019-05-15T13:26:23.343Z,14.00
2019-05-15T13:28:42.167Z,14.80
2019-05-15T13:31:09.853Z,14.10
2019-05-15T13:33:38.635Z,14.10
2019-05-15T13:36:08.717Z,14.70
2019-05-15T13:38:38.006Z,14.50
2019-05-15T13:41:05.031Z,14.70
2019-05-15T13:43:32.630Z,14.70
2019-05-15T13:46:00.250Z,14.80
2019-05-15T13:48:29.530Z,14.90
2019-05-15T13:50:59.012Z,14.80
2019-05-15T13:53:27.926Z,14.90
2019-05-15T13:55:55.852Z,14.90
2019-05-15T13:58:23.552Z,14.90
2019-05-15T14:00:51.111Z,14.90
2019-05-15T14:03:18.683Z,15.00
2019-05-15T14:05:48.940Z,14.90
2019-05-15T14:08:17.864Z,14.90
2019-05-15T14:10:44.876Z,14.90
2019-05-15T14:13:13.908Z,15.60
2019-05-15T14:15:41.535Z,15.60
2019-05-15T14:18:09.119Z,14.90
2019-05-15T14:20:38.727Z,14.90
2019-05-15T14:23:08.447Z,15.50
2019-05-15T14:25:35.357Z,15.20
2019-05-15T14:28:03.360Z,15.50
2019-05-15T14:30:30.934Z,15.60
2019-05-15T14:32:59.793Z,15.30
2019-05-15T14:35:27.899Z,16.10
2019-05-15T14:38:03.692Z,16.40
2019-05-15T14:40:24.745Z,17.30
2019-05-15T14:42:52.293Z,17.40
2019-05-15T14:45:19.948Z,17.60
2019-05-15T14:47:49.226Z,17.50
2019-05-15T14:50:16.864Z,18.20
2019-05-15T14:52:44.435Z,18.40
2019-05-15T14:55:12.324Z,17.80
2019-05-15T14:57:39.970Z,17.90
2019-05-15T15:00:08.890Z,17.70
2019-05-15T15:02:39.047Z,17.90
2019-05-15T15:05:08.712Z,17.90
2019-05-15T15:07:37.981Z,18.20
2019-05-15T15:10:07.687Z,17.90
2019-05-15T15:12:34.845Z,18.10
2019-05-15T15:15:02.456Z,18.40
2019-05-15T15:17:30.120Z,18.50
2019-05-15T15:20:00.257Z,18.50
2019-05-15T15:22:28.492Z,18.30
2019-05-15T15:24:59.641Z,18.30
2019-05-15T15:27:27.951Z,18.30
2019-05-15T15:29:55.048Z,18.40
2019-05-15T15:32:22.660Z,18.00
2019-05-15T15:34:50.261Z,17.50
2019-05-15T15:37:17.891Z,16.30
2019-05-15T15:39:45.493Z,15.70
2019-05-15T15:42:13.865Z,16.30
2019-05-15T15:44:41.442Z,16.70
2019-05-15T15:47:09.161Z,16.10
2019-05-15T15:49:38.746Z,16.10
2019-05-15T15:52:06.080Z,16.00
2019-05-15T15:54:33.761Z,18.50
2019-05-15T15:57:01.334Z,16.00
2019-05-15T15:59:29.282Z,16.10
2019-05-15T16:01:59.698Z,16.20
2019-05-15T16:04:28.089Z,16.40
2019-05-15T16:06:55.489Z,17.40
2019-05-15T16:09:23.058Z,20.90
2019-05-15T16:11:50.711Z,16.50
2019-05-15T16:14:21.071Z,16.40
2019-05-15T16:16:48.767Z,16.40
2019-05-15T16:19:18.232Z,16.40
2019-05-15T16:21:49.035Z,16.40
2019-05-15T16:24:18.746Z,16.40
2019-05-15T16:26:45.619Z,16.50
2019-05-15T16:29:13.223Z,16.30
2019-05-15T16:31:41.220Z,16.20
2019-05-15T16:34:08.928Z,16.20
2019-05-15T16:36:38.530Z,16.20
2019-05-15T16:39:09.148Z,16.30
2019-05-15T16:41:35.182Z,16.20
2019-05-15T16:44:02.815Z,16.80
2019-05-15T16:46:30.391Z,17.20
2019-05-15T16:48:58.671Z,18.30
2019-05-15T16:51:28.386Z,19.00
2019-05-15T16:53:58.064Z,20.60
2019-05-15T16:56:25.100Z,20.60
2019-05-15T16:58:52.777Z,20.60
2019-05-15T17:01:20.399Z,20.50
2019-05-15T17:03:48.520Z,20.50
2019-05-15T17:06:18.632Z,20.50
2019-05-15T17:08:45.756Z,20.50
2019-05-15T17:11:13.358Z,20.40
2019-05-15T17:13:40.928Z,20.50
2019-05-15T17:16:08.521Z,20.50
2019-05-15T17:18:38.145Z,20.40
2019-05-15T17:21:05.521Z,20.50
2019-05-15T17:23:34.790Z,20.40
2019-05-15T17:26:02.385Z,19.80
2019-05-15T17:28:29.933Z,18.60
2019-05-15T17:30:58.370Z,17.50
2019-05-15T17:33:28.659Z,17.50
2019-05-15T17:35:57.921Z,17.30
2019-05-15T17:38:25.003Z,17.10
2019-05-15T17:40:52.996Z,16.50
2019-05-15T17:43:20.561Z,17.20
2019-05-15T17:45:48.419Z,17.10
2019-05-15T17:48:16.150Z,18.00
2019-05-15T17:50:49.005Z,18.90
2019-05-15T17:53:12.994Z,19.00
2019-05-15T17:55:40.593Z,18.90
2019-05-15T17:58:09.226Z,20.20
2019-05-15T18:00:39.402Z,20.20
2019-05-15T18:03:08.468Z,20.80
2019-05-15T18:05:35.712Z,20.20
2019-05-15T18:08:03.325Z,20.20
2019-05-15T18:10:30.901Z,20.20
2019-05-15T18:12:58.561Z,20.20
2019-05-15T18:15:26.184Z,20.20
2019-05-15T18:17:54.098Z,20.20
2019-05-15T18:20:25.111Z,20.20
2019-05-15T18:22:52.732Z,20.20
2019-05-15T18:25:20.343Z,20.20
2019-05-15T18:27:48.155Z,20.20
2019-05-15T18:30:18.146Z,20.20
2019-05-15T18:32:45.126Z,20.20
2019-05-15T18:35:13.012Z,20.20
2019-05-15T18:37:40.683Z,20.20
2019-05-15T18:40:09.796Z,20.20
2019-05-15T18:42:38.954Z,20.20
2019-05-15T18:45:07.132Z,20.20
2019-05-15T18:47:34.802Z,20.10
2019-05-15T18:50:05.518Z,20.20
2019-05-15T18:52:31.739Z,20.20
2019-05-15T18:54:59.299Z,20.20
2019-05-15T18:57:26.972Z,20.20
2019-05-15T18:59:54.535Z,20.20
2019-05-15T19:02:22.139Z,20.30
2019-05-15T19:04:49.742Z,19.80
2019-05-15T19:07:18.206Z,20.20
2019-05-15T19:09:47.903Z,20.80
2019-05-15T19:12:15.178Z,20.20
2019-05-15T19:14:42.787Z,20.20
2019-05-15T19:17:10.363Z,20.20
2019-05-15T19:19:38.794Z,20.30
2019-05-15T19:22:07.893Z,20.30
2019-05-15T19:24:39.913Z,20.50
2019-05-15T19:27:05.057Z,20.70
2019-05-15T19:29:33.060Z,20.60
2019-05-15T19:32:00.636Z,20.80
2019-05-15T19:34:28.258Z,21.10
2019-05-15T19:36:58.034Z,21.40
2019-05-15T19:39:25.152Z,21.20
2019-05-15T19:41:52.719Z,21.50
2019-05-15T19:44:20.424Z,21.00
2019-05-15T19:46:48.151Z,21.40
2019-05-15T19:49:17.917Z,21.50
2019-05-15T19:51:45.504Z,21.40
2019-05-15T19:54:13.112Z,21.80
2019-05-15T19:56:40.681Z,21.70
2019-05-15T19:59:08.799Z,21.50
2019-05-15T20:01:38.379Z,22.10
2019-05-15T20:04:07.980Z,21.60
2019-05-15T20:06:35.286Z,22.00
2019-05-15T20:09:02.872Z,22.10
2019-05-15T20:11:30.653Z,21.90
2019-05-15T20:13:58.485Z,22.20
2019-05-15T20:16:28.197Z,21.70
2019-05-15T20:18:57.918Z,22.00
2019-05-15T20:21:24.892Z,22.00
2019-05-15T20:23:52.486Z,21.90
2019-05-15T20:26:20.073Z,22.30
2019-05-15T20:28:48.272Z,21.90
2019-05-15T20:31:18.413Z,21.90
2019-05-15T20:33:48.232Z,22.10
2019-05-15T20:36:15.330Z,21.80
2019-05-15T20:38:42.927Z,21.70
2019-05-15T20:41:10.552Z,21.80
2019-05-15T20:43:38.456Z,21.80
2019-05-15T20:46:08.302Z,21.90
2019-05-15T20:48:35.525Z,22.00
2019-05-15T20:51:03.120Z,21.90
2019-05-15T20:53:30.692Z,22.10
2019-05-15T20:55:58.849Z,22.10
2019-05-15T20:58:26.816Z,22.10
2019-05-15T21:01:13.799Z,22.00
2019-05-15T21:03:41.399Z,22.00
2019-05-15T21:06:10.809Z,22.10
2019-05-15T21:08:38.275Z,22.20
2019-05-15T21:11:05.891Z,22.20
2019-05-15T21:13:33.496Z,22.20
2019-05-15T21:16:01.092Z,22.20
2019-05-15T21:18:29.059Z,22.20
2019-05-15T21:20:56.732Z,22.10
2019-05-15T21:23:24.324Z,22.20
2019-05-15T21:25:51.915Z,22.30
2019-05-15T21:28:19.467Z,22.20
2019-05-15T21:30:49.277Z,22.20
2019-05-15T21:33:17.678Z,22.20
2019-05-15T21:35:47.636Z,22.30
2019-05-15T21:38:14.734Z,22.30
2019-05-15T21:40:42.365Z,22.40
2019-05-15T21:43:10.005Z,22.60
2019-05-15T21:45:39.698Z,22.50
2019-05-15T21:48:08.985Z,22.40
2019-05-15T21:50:38.673Z,22.40
2019-05-15T21:53:05.525Z,22.50
2019-05-15T21:55:33.875Z,22.60
2019-05-15T21:58:01.468Z,22.60
2019-05-15T22:00:31.650Z,22.70
2019-05-15T22:02:59.257Z,22.70
2019-05-15T22:05:26.839Z,22.80
2019-05-15T22:08:12.763Z,22.60
2019-05-15T22:10:40.372Z,22.80
2019-05-15T22:13:07.952Z,22.80
2019-05-15T22:15:35.580Z,22.80
2019-05-15T22:18:03.173Z,22.70
2019-05-15T22:20:30.778Z,22.50
2019-05-15T22:22:59.523Z,22.80
2019-05-15T22:25:27.979Z,22.80
2019-05-15T22:27:57.822Z,22.70
2019-05-15T22:30:25.165Z,22.70
2019-05-15T22:32:52.728Z,22.60
2019-05-15T22:35:20.319Z,22.80
2019-05-15T22:37:49.190Z,22.60
2019-05-15T22:40:18.518Z,22.60
2019-05-15T22:42:48.366Z,22.70
2019-05-15T22:45:17.923Z,22.60
2019-05-15T22:47:44.854Z,22.60
2019-05-15T22:50:12.480Z,22.70
2019-05-15T22:52:40.071Z,22.60
2019-05-15T22:55:08.454Z,22.60
2019-05-15T22:57:36.042Z,22.60
2019-05-15T23:00:03.794Z,22.60
2019-05-15T23:02:31.346Z,22.50
2019-05-15T23:05:00.481Z,22.70
2019-05-15T23:07:28.210Z,22.60
2019-05-15T23:09:58.179Z,22.50
2019-05-15T23:12:25.167Z,22.50
2019-05-15T23:14:52.791Z,22.40
2019-05-15T23:17:20.365Z,22.40
2019-05-15T23:19:48.570Z,22.50
2019-05-15T23:22:18.535Z,22.50
2019-05-15T23:24:47.830Z,22.40
2019-05-15T23:27:14.892Z,22.40
2019-05-15T23:29:42.480Z,22.50
2019-05-15T23:32:10.075Z,22.50
2019-05-15T23:34:38.573Z,22.40
2019-05-15T23:37:08.253Z,22.40
2019-05-15T23:39:37.936Z,23.00
2019-05-15T23:42:05.272Z,22.40
2019-05-15T23:44:32.815Z,22.40
2019-05-15T23:47:00.438Z,22.40
2019-05-15T23:49:28.012Z,22.40
2019-05-15T23:51:55.594Z,22.40
2019-05-15T23:54:23.223Z,22.30
2019-05-15T23:56:50.843Z,22.40
2019-05-15T23:59:18.833Z,22.40
